FYLZ/LUD METAR and TAF weather

Enter ICAO airport designator
Station Type Date Time Source
FYLZ METAR 2022/12/05 15:00 UTC NOAA

FYLZ 051500Z AUTO 20028KT //// // ////// 22/11 Q1012


Station Type Date Time Source
FYLZ Decoded METAR 2022/12/05 15:00 UTC NOAA

Luderitz / Diaz Point, Namibia (FYLZ) 26-41S 015-15E
Dec 05, 2022 - 10:00 AM EST / 2022.12.05 1500 UTC
Wind: from the SSW (200 degrees) at 32 MPH (28 KT):0
Temperature: 71 F (22 C)
Dew Point: 51 F (11 C)
Relative Humidity: 49%
Pressure (altimeter): 29.88 in. Hg (1012 hPa)
ob: FYLZ 051500Z AUTO 20028KT //// // ////// 22/11 Q1012
cycle: 15

Station Type Date Time Source
FYLZ TAF 2014/11/15 15:19 UTC NOAA

TAF FYLZ 151400Z 1515/1524 18015G28KT CAVOK
BECMG 1518/1520 16020KT

Example: see airport list